Time;durP1;ratioP1;P1;durP2;ratioP2;P2;SDS_P1;SDS_P2;PMS_P1;PMS_P2;Temp;Humidity;BMP_temperature;BMP_pressure;BME280_temperature;BME280_humidity;BME280_pressure;Samples;Min_cycle;Max_cycle;Signal;HPM_P1;HPM_P2
2022/08/30 00:03:02;;;;;;;1.60;0.90;;;16.40;99.90;15.90;100595;;;;554587;254;24174;-81
2022/08/30 00:05:30;;;;;;;1.27;0.90;;;16.40;99.90;15.90;100597;;;;554278;254;24157;-82
2022/08/30 00:07:58;;;;;;;2.90;1.00;;;16.50;99.90;15.90;100607;;;;562823;254;24157;-78
2022/08/30 00:10:29;;;;;;;0.77;0.63;;;16.50;99.90;15.90;100613;;;;554431;254;24213;-76
2022/08/30 00:12:54;;;;;;;0.93;0.60;;;16.40;99.90;16.00;100610;;;;554429;254;24161;-78
2022/08/30 00:15:22;;;;;;;1.33;0.90;;;16.50;99.90;16.00;100614;;;;554517;254;24137;-77
2022/08/30 00:17:50;;;;;;;1.17;0.60;;;16.50;99.90;16.00;100617;;;;554635;254;24141;-82
2022/08/30 00:20:17;;;;;;;2.00;0.97;;;16.50;99.90;16.00;100619;;;;563109;254;24165;-81
2022/08/30 00:22:45;;;;;;;2.70;0.90;;;16.50;99.90;16.00;100617;;;;554192;254;24182;-81
2022/08/30 00:25:13;;;;;;;0.77;0.60;;;16.50;99.90;16.00;100614;;;;554701;254;24163;-81
2022/08/30 00:27:42;;;;;;;1.63;0.77;;;16.50;99.90;16.00;100623;;;;554482;254;24179;-81
2022/08/30 00:30:13;;;;;;;2.60;0.63;;;16.60;99.90;16.00;100630;;;;554647;254;24182;-78
2022/08/30 00:32:37;;;;;;;2.53;0.60;;;16.60;99.90;16.00;100623;;;;554125;254;24200;-81
2022/08/30 00:35:05;;;;;;;0.50;0.50;;;16.60;99.90;16.00;100624;;;;555333;254;24206;-81
2022/08/30 00:37:33;;;;;;;1.13;0.67;;;16.50;99.90;16.00;100626;;;;555549;254;24199;-78
2022/08/30 00:40:04;;;;;;;0.83;0.60;;;16.50;99.90;16.00;100628;;;;554525;254;24214;-80
2022/08/30 00:42:29;;;;;;;0.63;0.63;;;16.50;99.90;16.00;100622;;;;554736;254;24179;-78
2022/08/30 00:44:57;;;;;;;0.50;0.50;;;16.50;99.90;15.90;100630;;;;555101;254;24137;-80
2022/08/30 00:47:27;;;;;;;3.97;0.70;;;16.50;99.90;15.90;100631;;;;555206;254;24146;-81
2022/08/30 00:49:53;;;;;;;0.50;0.40;;;16.40;99.90;15.90;100629;;;;554982;254;24146;-82
2022/08/30 00:52:21;;;;;;;1.50;0.57;;;16.40;99.90;15.90;100634;;;;554949;254;24160;-81
2022/08/30 00:54:49;;;;;;;1.07;0.47;;;16.40;99.90;15.90;100633;;;;554971;254;24135;-80
2022/08/30 00:57:17;;;;;;;3.10;0.40;;;16.40;99.90;15.90;100631;;;;554848;254;24154;-81
2022/08/30 00:59:45;;;;;;;1.52;0.52;;;16.40;99.90;15.90;100633;;;;550142;254;57355;-81
2022/08/30 01:02:13;;;;;;;2.70;0.53;;;16.40;99.90;15.90;100629;;;;554886;254;24160;-80
2022/08/30 01:04:41;;;;;;;1.33;0.60;;;16.40;99.90;15.90;100627;;;;554262;254;24149;-81
2022/08/30 01:07:09;;;;;;;1.70;0.63;;;16.40;99.90;15.90;100625;;;;554864;254;24146;-82
2022/08/30 01:09:40;;;;;;;0.37;0.37;;;16.40;99.90;15.90;100625;;;;554695;254;24170;-77
2022/08/30 01:12:08;;;;;;;0.30;0.30;;;16.40;99.90;15.90;100628;;;;554457;254;24142;-80
2022/08/30 01:14:33;;;;;;;0.37;0.37;;;16.40;99.90;15.90;100624;;;;554194;254;24148;-80
2022/08/30 01:17:05;;;;;;;0.47;0.30;;;16.40;99.90;15.90;100634;;;;554661;254;24137;-78
2022/08/30 01:19:51;;;;;;;0.30;0.30;;;16.40;99.90;15.80;100634;;;;554445;254;24147;-80
2022/08/30 01:22:27;;;;;;;0.57;0.43;;;16.40;99.90;15.70;100641;;;;555016;254;24138;-77
2022/08/30 01:24:55;;;;;;;0.70;0.50;;;16.30;99.90;15.70;100633;;;;554453;254;24143;-78
2022/08/30 01:27:23;;;;;;;1.13;0.50;;;16.20;99.90;15.70;100633;;;;554643;254;24212;-82
2022/08/30 01:29:51;;;;;;;0.50;0.30;;;16.20;99.90;15.60;100633;;;;554605;254;24161;-82
2022/08/30 01:32:19;;;;;;;2.20;0.57;;;16.20;99.90;15.60;100630;;;;554695;254;24155;-81
2022/08/30 01:34:48;;;;;;;3.57;0.40;;;16.00;99.90;15.50;100633;;;;554516;254;24186;-80
2022/08/30 01:37:19;;;;;;;1.20;0.37;;;16.00;99.90;15.40;100626;;;;554497;254;24177;-81
2022/08/30 01:39:48;;;;;;;1.40;0.50;;;15.90;99.90;15.40;100629;;;;554480;254;24204;-81
2022/08/30 01:42:19;;;;;;;1.10;0.47;;;15.90;99.90;15.40;100621;;;;554513;254;24229;-81
2022/08/30 01:44:47;;;;;;;0.73;0.50;;;15.90;99.90;15.40;100625;;;;562875;254;24194;-81
2022/08/30 01:47:16;;;;;;;1.20;0.40;;;15.90;99.90;15.40;100626;;;;555614;254;24141;-81
2022/08/30 01:49:45;;;;;;;0.60;0.60;;;15.90;99.90;15.40;100624;;;;555538;254;24145;-81
2022/08/30 01:52:14;;;;;;;0.47;0.47;;;16.00;99.90;15.50;100632;;;;555002;254;24165;-82
2022/08/30 01:54:39;;;;;;;0.40;0.30;;;16.00;99.90;15.50;100635;;;;554916;254;24173;-82
2022/08/30 01:57:07;;;;;;;0.80;0.30;;;16.00;99.90;15.60;100623;;;;554985;254;24183;-80
2022/08/30 01:59:35;;;;;;;2.17;0.60;;;16.10;99.90;15.60;100622;;;;554907;254;24151;-82
2022/08/30 02:02:06;;;;;;;0.77;0.43;;;16.10;99.90;15.60;100625;;;;555032;254;24150;-82
2022/08/30 02:04:31;;;;;;;4.73;0.57;;;16.20;99.90;15.60;100625;;;;554803;254;24151;-80
2022/08/30 02:07:01;;;;;;;0.40;0.40;;;16.20;99.90;15.60;100639;;;;563211;254;24126;-81
2022/08/30 02:09:30;;;;;;;4.73;0.73;;;16.20;99.90;15.70;100631;;;;554768;254;24143;-79
2022/08/30 02:11:55;;;;;;;0.87;0.83;;;16.20;99.90;15.70;100641;;;;554505;254;24141;-81
2022/08/30 02:14:24;;;;;;;1.47;0.63;;;16.20;99.90;15.70;100638;;;;554864;254;24185;-77
2022/08/30 02:16:52;;;;;;;1.47;0.60;;;16.20;99.90;15.70;100632;;;;554240;254;24152;-78
2022/08/30 02:19:20;;;;;;;2.10;0.60;;;16.30;99.90;15.70;100629;;;;554833;254;24153;-76
2022/08/30 02:21:48;;;;;;;1.83;0.67;;;16.30;99.90;15.70;100634;;;;555022;254;24166;-77
2022/08/30 02:24:16;;;;;;;2.17;0.53;;;16.30;99.90;15.70;100646;;;;554857;254;24165;-76
2022/08/30 02:26:44;;;;;;;4.50;0.60;;;16.30;99.90;15.70;100645;;;;554564;254;24147;-80
2022/08/30 02:29:11;;;;;;;1.57;0.50;;;16.30;99.90;15.60;100640;;;;554482;254;24164;-80
2022/08/30 02:31:40;;;;;;;2.27;0.63;;;16.20;99.90;15.60;100644;;;;554590;254;24177;-78
2022/08/30 02:34:08;;;;;;;1.87;0.80;;;16.10;99.90;15.50;100637;;;;554424;254;24209;-77
2022/08/30 02:36:38;;;;;;;5.00;0.90;;;16.10;99.90;15.50;100640;;;;549975;254;57390;-76
2022/08/30 02:39:04;;;;;;;1.70;0.70;;;16.00;99.90;15.40;100637;;;;554402;254;24166;-79
2022/08/30 02:41:32;;;;;;;1.83;0.60;;;15.90;99.90;15.30;100637;;;;554515;254;24161;-77
2022/08/30 02:44:00;;;;;;;1.60;0.77;;;15.90;99.90;15.30;100637;;;;554512;254;24161;-78
2022/08/30 02:46:28;;;;;;;2.40;0.60;;;15.90;99.90;15.30;100630;;;;554532;254;24155;-81
2022/08/30 02:48:56;;;;;;;1.13;0.80;;;15.90;99.90;15.30;100641;;;;554583;254;24196;-81
2022/08/30 02:51:24;;;;;;;0.50;0.50;;;15.90;99.90;15.40;100644;;;;554555;254;24135;-82
2022/08/30 02:53:51;;;;;;;2.10;0.67;;;15.90;99.90;15.40;100648;;;;554858;254;24139;-81
2022/08/30 02:56:19;;;;;;;4.60;0.90;;;15.90;99.90;15.50;100653;;;;554153;254;24148;-82
2022/08/30 02:58:47;;;;;;;0.50;0.50;;;16.00;99.90;15.50;100636;;;;556051;254;24134;-82
2022/08/30 03:01:19;;;;;;;1.73;0.73;;;16.00;99.90;15.50;100645;;;;555914;254;24192;-81
2022/08/30 03:03:46;;;;;;;2.37;0.70;;;16.00;99.90;15.50;100651;;;;563732;254;24134;-82
2022/08/30 03:06:11;;;;;;;2.20;0.50;;;16.10;99.90;15.50;100647;;;;563604;251;24142;-82
2022/08/30 03:08:42;;;;;;;1.30;0.80;;;16.10;99.90;15.60;100642;;;;555479;254;24158;-82
2022/08/30 03:11:07;;;;;;;1.70;0.67;;;16.10;99.90;15.50;100647;;;;555114;254;24151;-81
2022/08/30 03:13:35;;;;;;;2.57;0.70;;;16.10;99.90;15.60;100650;;;;555438;254;24175;-82
2022/08/30 03:16:03;;;;;;;3.63;0.70;;;16.10;99.90;15.50;100650;;;;555288;254;24165;-81
2022/08/30 03:18:32;;;;;;;0.87;0.70;;;16.10;99.90;15.50;100660;;;;555155;254;24123;-82
2022/08/30 03:20:59;;;;;;;2.57;0.40;;;16.00;99.90;15.50;100653;;;;554685;254;25222;-82
2022/08/30 03:23:27;;;;;;;1.50;0.40;;;16.00;99.90;15.40;100655;;;;554815;254;24143;-81
2022/08/30 03:25:56;;;;;;;0.30;0.30;;;16.00;99.90;15.40;100646;;;;554870;254;24138;-77
2022/08/30 03:28:23;;;;;;;0.67;0.53;;;16.00;99.90;15.40;100643;;;;554731;254;24159;-82
2022/08/30 03:30:51;;;;;;;0.60;0.60;;;15.90;99.90;15.30;100647;;;;554922;254;24134;-81
2022/08/30 03:33:19;;;;;;;0.93;0.30;;;15.90;99.90;15.30;100652;;;;555135;254;24161;-80
2022/08/30 03:35:47;;;;;;;1.17;0.50;;;15.80;99.90;15.10;100649;;;;554895;254;24139;-82
2022/08/30 03:38:17;;;;;;;0.93;0.40;;;15.70;99.90;15.10;100655;;;;554841;254;24153;-79
2022/08/30 03:40:43;;;;;;;1.03;0.53;;;15.60;99.90;15.00;100655;;;;554648;254;24159;-81
2022/08/30 03:43:10;;;;;;;4.67;0.60;;;15.50;99.90;14.90;100641;;;;554788;254;24171;-81
2022/08/30 03:45:38;;;;;;;2.83;0.40;;;15.50;99.90;14.90;100649;;;;554926;254;24154;-79
2022/08/30 03:48:10;;;;;;;1.00;0.40;;;15.40;99.90;14.80;100647;;;;554816;254;24140;-81
2022/08/30 03:50:35;;;;;;;0.40;0.37;;;15.40;99.90;14.80;100647;;;;554743;254;25281;-82
2022/08/30 03:53:03;;;;;;;1.87;0.60;;;15.40;99.90;14.80;100654;;;;554731;254;24151;-81
2022/08/30 03:55:31;;;;;;;0.80;0.73;;;15.40;99.90;14.80;100653;;;;554345;254;24173;-82
2022/08/30 03:57:59;;;;;;;3.50;0.53;;;15.40;99.90;14.80;100659;;;;554822;254;24182;-81
2022/08/30 04:00:27;;;;;;;1.10;0.30;;;15.30;99.90;14.80;100663;;;;554868;254;24139;-82
2022/08/30 04:02:54;;;;;;;1.60;0.40;;;15.40;99.90;14.80;100655;;;;554879;251;24150;-82
2022/08/30 04:05:22;;;;;;;1.27;0.30;;;15.40;99.90;14.80;100663;;;;554778;254;24133;-81
2022/08/30 04:07:51;;;;;;;0.57;0.43;;;15.40;99.90;14.90;100661;;;;554846;254;24196;-80
2022/08/30 04:10:22;;;;;;;3.20;0.50;;;15.40;99.90;14.90;100671;;;;555952;254;24131;-82
2022/08/30 04:12:50;;;;;;;1.33;0.67;;;15.40;99.90;14.90;100684;;;;554941;254;24252;-82
2022/08/30 04:15:18;;;;;;;0.60;0.60;;;15.40;99.90;14.90;100665;;;;555582;254;24131;-82
2022/08/30 04:17:49;;;;;;;0.60;0.60;;;15.50;99.90;15.00;100675;;;;563708;254;24209;-81
2022/08/30 04:20:14;;;;;;;2.63;0.50;;;15.50;99.90;15.00;100679;;;;564618;250;24135;-82
2022/08/30 04:22:42;;;;;;;2.90;0.60;;;15.50;99.90;15.00;100678;;;;554953;254;24194;-81
2022/08/30 04:25:10;;;;;;;3.00;0.60;;;15.50;99.90;15.00;100677;;;;554995;254;24128;-81
2022/08/30 04:27:38;;;;;;;2.17;0.47;;;15.50;99.90;15.00;100679;;;;563034;254;24150;-81
2022/08/30 04:30:06;;;;;;;0.30;0.30;;;15.50;99.90;15.00;100677;;;;554701;254;24144;-82
2022/08/30 04:32:37;;;;;;;1.80;0.47;;;15.50;99.90;15.00;100674;;;;554625;254;24158;-78
2022/08/30 04:35:09;;;;;;;1.03;0.70;;;15.60;99.90;15.00;100684;;;;555111;254;24138;-81
2022/08/30 04:37:34;;;;;;;2.00;0.77;;;15.60;99.90;15.10;100677;;;;554242;254;24149;-80
2022/08/30 04:40:02;;;;;;;1.50;0.40;;;15.60;99.90;15.20;100681;;;;554709;254;24169;-81
2022/08/30 04:42:30;;;;;;;1.50;0.57;;;15.70;99.90;15.30;100678;;;;564065;251;24103;-79
2022/08/30 04:44:57;;;;;;;0.50;0.50;;;15.80;99.90;15.50;100683;;;;555824;254;25241;-79
2022/08/30 04:47:25;;;;;;;0.60;0.60;;;16.00;99.90;15.60;100681;;;;555638;254;24133;-77
2022/08/30 04:49:56;;;;;;;0.30;0.27;;;16.10;99.90;15.80;100682;;;;555184;254;24293;-80
2022/08/30 04:52:21;;;;;;;0.30;0.30;;;16.30;99.90;16.00;100676;;;;554141;254;25237;-79
2022/08/30 04:54:49;;;;;;;1.63;0.40;;;16.40;99.90;16.30;100677;;;;555098;254;24207;-77
2022/08/30 04:57:17;;;;;;;1.30;0.63;;;16.70;99.90;16.70;100699;;;;554809;254;24192;-80
2022/08/30 04:59:45;;;;;;;0.40;0.40;;;17.10;99.90;16.80;100698;;;;554687;254;24234;-79
2022/08/30 05:02:13;;;;;;;1.47;0.60;;;17.30;99.90;16.70;100694;;;;554446;254;24158;-83
2022/08/30 05:05:38;;;;;;;2.10;1.00;;;17.20;99.90;16.60;100703;;;;554616;254;24249;-82
2022/08/30 05:07:10;;;;;;;0.50;0.50;;;17.20;99.90;16.50;100712;;;;553159;254;24145;-82
2022/08/30 05:09:38;;;;;;;0.93;0.60;;;17.10;99.90;16.40;100706;;;;554440;254;24176;-81
2022/08/30 05:12:06;;;;;;;1.00;0.73;;;16.90;99.90;16.30;100702;;;;554518;254;24147;-79
2022/08/30 05:14:34;;;;;;;0.50;0.50;;;16.90;99.90;16.30;100714;;;;554466;254;24206;-78
2022/08/30 05:17:02;;;;;;;3.10;0.70;;;16.80;99.90;16.30;100718;;;;554542;254;24191;-79
2022/08/30 05:19:30;;;;;;;1.90;0.73;;;16.80;99.90;16.30;100710;;;;554504;254;24244;-77
2022/08/30 05:21:57;;;;;;;0.70;0.70;;;16.80;99.90;16.30;100718;;;;555988;254;25191;-78
2022/08/30 05:24:26;;;;;;;2.27;0.70;;;16.90;99.90;16.40;100721;;;;555822;254;24199;-77
2022/08/30 05:26:55;;;;;;;1.07;0.80;;;17.00;99.90;16.50;100719;;;;555549;254;24130;-77
2022/08/30 05:29:23;;;;;;;0.30;0.30;;;17.00;99.90;16.50;100730;;;;555474;254;24138;-77
2022/08/30 05:31:51;;;;;;;1.43;0.50;;;17.00;99.90;16.50;100728;;;;554821;254;24156;-77
2022/08/30 05:34:19;;;;;;;1.33;0.70;;;17.10;99.90;16.50;100729;;;;555025;254;24139;-77
2022/08/30 05:36:46;;;;;;;4.07;0.87;;;17.00;99.90;16.50;100722;;;;554894;254;24150;-78
2022/08/30 05:39:14;;;;;;;2.20;0.50;;;17.10;99.90;16.60;100741;;;;554676;254;24161;-78
2022/08/30 05:41:42;;;;;;;0.80;0.70;;;17.10;99.90;16.70;100731;;;;554820;254;24236;-79
2022/08/30 05:44:14;;;;;;;2.90;0.70;;;17.20;99.90;17.40;100732;;;;554689;254;24221;-79
2022/08/30 05:46:44;;;;;;;0.70;0.70;;;18.20;99.90;17.90;100733;;;;554339;254;24130;-77
2022/08/30 05:49:07;;;;;;;1.47;0.80;;;18.20;99.90;18.10;100731;;;;554514;254;24133;-80
2022/08/30 05:51:35;;;;;;;0.70;0.63;;;18.60;99.90;18.30;100729;;;;554685;254;24139;-79
2022/08/30 05:54:05;;;;;;;1.00;0.63;;;18.80;99.90;18.60;100734;;;;554785;254;24165;-78
2022/08/30 05:56:31;;;;;;;2.93;0.63;;;19.00;99.90;19.00;100724;;;;554335;254;24162;-78
2022/08/30 05:58:58;;;;;;;3.73;0.80;;;19.40;99.90;19.70;100725;;;;554459;254;24148;-79
2022/08/30 06:01:30;;;;;;;3.08;0.73;;;20.00;99.90;21.10;100732;;;;548961;254;35508;-77
2022/08/30 06:04:01;;;;;;;0.73;0.70;;;21.10;99.90;22.50;100724;;;;554263;254;24156;-76
2022/08/30 06:06:25;;;;;;;1.97;0.80;;;22.40;99.90;24.10;100741;;;;554300;254;24142;-78
2022/08/30 06:08:53;;;;;;;3.70;1.10;;;24.00;99.90;26.50;100734;;;;554378;254;25248;-78
2022/08/30 06:11:21;;;;;;;1.93;0.93;;;26.20;99.90;27.80;100739;;;;554609;254;23173;-77
2022/08/30 06:13:52;;;;;;;0.97;0.70;;;27.80;99.90;27.30;100745;;;;554436;254;24168;-79
2022/08/30 06:16:17;;;;;;;5.10;1.07;;;27.90;98.00;27.10;100738;;;;554360;254;24149;-81
2022/08/30 06:18:48;;;;;;;2.77;0.80;;;27.70;96.60;27.10;100734;;;;554442;254;23164;-79
2022/08/30 06:21:18;;;;;;;2.20;0.70;;;27.70;96.40;26.60;100736;;;;554756;254;23189;-81
2022/08/30 06:23:44;;;;;;;2.37;0.90;;;27.40;95.30;26.00;100751;;;;554639;254;23167;-80
2022/08/30 06:26:11;;;;;;;3.03;0.70;;;26.70;95.50;25.20;100746;;;;554961;254;24190;-78
2022/08/30 06:28:39;;;;;;;1.40;0.67;;;26.00;95.80;24.30;100748;;;;554904;254;23168;-82
2022/08/30 06:31:10;;;;;;;0.67;0.67;;;25.10;97.40;23.50;100750;;;;554825;254;24143;-80
2022/08/30 06:33:35;;;;;;;2.53;0.70;;;24.40;99.10;23.20;100746;;;;555707;254;24153;-81
2022/08/30 06:36:03;;;;;;;2.23;1.00;;;23.90;99.90;23.20;100759;;;;555501;254;24274;-78
2022/08/30 06:38:31;;;;;;;1.90;0.93;;;23.70;99.90;23.70;100761;;;;555104;254;24139;-79
2022/08/30 06:40:59;;;;;;;2.50;0.70;;;24.00;99.90;23.70;100771;;;;555196;254;24124;-78
2022/08/30 06:43:27;;;;;;;2.63;0.87;;;24.10;99.90;23.30;100767;;;;554912;254;24155;-81
2022/08/30 06:45:55;;;;;;;1.87;0.98;;;23.80;99.90;23.20;100776;;;;550481;251;35566;-79
2022/08/30 06:48:23;;;;;;;1.90;0.70;;;23.70;99.90;23.20;100768;;;;555372;254;24158;-81
2022/08/30 06:50:54;;;;;;;2.45;0.90;;;23.60;99.90;23.10;100767;;;;550445;254;35535;-80
2022/08/30 06:53:24;;;;;;;1.70;0.60;;;23.60;99.90;22.90;100772;;;;554999;254;24206;-77
2022/08/30 06:55:59;;;;;;;1.80;0.80;;;23.40;99.90;22.90;100768;;;;550072;254;35524;-80
2022/08/30 06:58:30;;;;;;;2.67;0.60;;;23.40;99.90;22.90;100777;;;;554975;254;24158;-79
2022/08/30 07:00:55;;;;;;;2.17;1.00;;;23.40;99.90;23.00;100774;;;;554917;254;24178;-79
2022/08/30 07:03:26;;;;;;;1.90;0.80;;;23.40;99.90;22.80;100782;;;;554664;254;24179;-79
2022/08/30 07:05:51;;;;;;;4.73;0.67;;;23.30;99.90;22.40;100781;;;;555032;254;24214;-79
2022/08/30 07:08:22;;;;;;;2.57;0.80;;;23.00;99.90;22.00;100782;;;;554983;254;24146;-78
2022/08/30 07:10:50;;;;;;;1.43;0.80;;;22.30;99.90;21.80;100786;;;;554456;254;24139;-82
2022/08/30 07:13:20;;;;;;;1.13;0.60;;;22.00;99.90;21.40;100787;;;;554545;254;24138;-82
2022/08/30 07:15:47;;;;;;;6.87;0.90;;;21.90;99.90;21.00;100799;;;;564074;250;24134;-82
2022/08/30 07:20:58;;;;;;;2.70;0.77;;;21.30;99.90;20.30;100807;;;;563071;254;24213;-81
2022/08/30 07:23:27;;;;;;;5.77;0.90;;;20.80;99.90;20.30;100809;;;;554820;254;23161;-81
2022/08/30 07:25:55;;;;;;;2.10;0.60;;;20.60;99.90;20.10;100807;;;;554549;254;24180;-79
2022/08/30 07:28:24;;;;;;;2.97;0.60;;;20.50;99.90;20.00;100807;;;;554331;254;23203;-81
2022/08/30 07:30:52;;;;;;;11.57;1.03;;;20.50;99.90;19.70;100815;;;;554502;254;24198;-78
2022/08/30 07:33:20;;;;;;;8.77;1.03;;;20.30;99.90;19.60;100821;;;;554857;254;23160;-78
2022/08/30 07:35:49;;;;;;;1.03;0.50;;;19.90;99.90;19.30;100822;;;;554560;254;24188;-78
2022/08/30 07:38:17;;;;;;;2.57;0.60;;;19.80;99.90;18.90;100813;;;;554501;254;24150;-79
2022/08/30 07:40:44;;;;;;;5.53;0.80;;;19.50;99.90;18.60;100814;;;;554859;254;24169;-83
2022/08/30 07:43:12;;;;;;;0.77;0.60;;;19.10;99.90;18.40;100818;;;;554587;254;24148;-82
2022/08/30 07:45:40;;;;;;;1.07;0.63;;;18.90;99.90;18.40;100820;;;;555869;254;24217;-79
2022/08/30 07:48:10;;;;;;;3.70;0.90;;;18.80;99.90;18.40;100817;;;;555482;254;24254;-78
2022/08/30 07:50:36;;;;;;;1.73;0.60;;;18.90;99.90;18.30;100819;;;;555121;254;24135;-79
2022/08/30 07:53:08;;;;;;;5.73;0.70;;;18.80;99.90;18.30;100825;;;;555239;254;24166;-81
2022/08/30 07:55:33;;;;;;;0.50;0.50;;;18.80;99.90;18.40;100819;;;;554723;254;24154;-80
2022/08/30 07:58:01;;;;;;;0.77;0.43;;;18.90;99.90;18.50;100826;;;;554914;254;24150;-81
2022/08/30 08:00:30;;;;;;;4.63;0.73;;;19.00;99.90;18.60;100823;;;;555017;254;24142;-81
2022/08/30 08:02:58;;;;;;;3.00;0.50;;;19.00;99.90;18.70;100832;;;;554757;254;24135;-83
2022/08/30 08:05:26;;;;;;;2.20;0.57;;;19.10;99.90;18.80;100829;;;;554827;254;24127;-81
2022/08/30 08:07:54;;;;;;;0.77;0.50;;;19.20;99.90;18.80;100838;;;;554742;254;24123;-81
2022/08/30 08:10:22;;;;;;;1.10;0.70;;;19.30;99.90;18.80;100830;;;;554225;254;23145;-80
2022/08/30 08:12:49;;;;;;;1.90;0.60;;;19.30;99.90;18.80;100828;;;;555339;254;24146;-78
2022/08/30 08:15:18;;;;;;;1.80;0.80;;;19.20;99.90;18.70;100830;;;;555085;254;24137;-80
2022/08/30 08:17:47;;;;;;;1.33;0.57;;;19.10;99.90;18.60;100833;;;;554849;254;24127;-80
2022/08/30 08:20:18;;;;;;;2.27;0.57;;;19.10;99.90;18.50;100844;;;;554634;254;24180;-79
2022/08/30 08:22:43;;;;;;;0.70;0.50;;;19.00;99.90;18.50;100847;;;;554622;254;24157;-80
2022/08/30 08:25:14;;;;;;;4.40;0.80;;;19.00;99.90;18.40;100858;;;;554966;254;24128;-81
2022/08/30 08:27:38;;;;;;;0.77;0.77;;;18.90;99.90;18.40;100860;;;;554479;254;24139;-80
2022/08/30 08:30:06;;;;;;;1.13;0.80;;;18.90;99.90;18.30;100857;;;;554772;254;24134;-78
2022/08/30 08:32:34;;;;;;;0.50;0.50;;;18.80;99.90;18.30;100865;;;;564143;254;24297;-78
2022/08/30 08:35:06;;;;;;;1.87;0.50;;;18.80;99.90;18.30;100862;;;;554792;254;24134;-78
2022/08/30 08:37:30;;;;;;;3.40;0.80;;;18.70;99.90;18.20;100861;;;;549306;254;35701;-82
2022/08/30 08:39:58;;;;;;;0.93;0.57;;;18.60;99.90;18.00;100869;;;;554587;254;24236;-76
2022/08/30 08:42:51;;;;;;;0.63;0.63;;;18.30;99.90;17.90;100877;;;;554266;254;24182;-77
2022/08/30 08:45:24;;;;;;;2.23;1.70;;;18.30;99.90;17.90;100880;;;;554818;254;24132;-80
2022/08/30 08:48:01;;;;;;;1.17;0.70;;;18.20;99.90;17.80;100883;;;;562106;254;24204;-82
2022/08/30 08:50:29;;;;;;;2.77;0.80;;;18.20;99.90;17.70;100888;;;;554270;254;24133;-81
2022/08/30 08:55:46;;;;;;;1.70;0.77;;;18.00;99.90;17.50;100890;;;;555119;254;24216;-81
2022/08/30 08:58:17;;;;;;;1.73;0.77;;;17.90;99.90;17.40;100895;;;;555524;254;24242;-79
2022/08/30 09:00:45;;;;;;;1.80;0.80;;;17.80;99.90;17.20;100905;;;;554929;253;24209;-80
2022/08/30 09:03:12;;;;;;;4.47;0.87;;;17.60;99.90;17.20;100896;;;;555260;254;24139;-80
2022/08/30 09:05:44;;;;;;;2.20;0.80;;;17.50;99.90;17.20;100897;;;;555116;254;24147;-79
2022/08/30 09:08:08;;;;;;;1.43;0.70;;;17.60;99.90;17.20;100907;;;;554942;254;24160;-78
2022/08/30 09:10:41;;;;;;;1.87;0.90;;;17.40;99.90;17.00;100899;;;;555070;254;24171;-77
2022/08/30 09:13:09;;;;;;;0.60;0.60;;;17.40;99.90;16.90;100903;;;;554918;254;24131;-82
2022/08/30 09:15:34;;;;;;;2.17;0.57;;;17.10;99.90;16.80;100893;;;;554695;254;24171;-83
2022/08/30 09:18:02;;;;;;;1.97;0.60;;;17.00;99.90;16.60;100896;;;;555003;254;24128;-77
2022/08/30 09:20:40;;;;;;;1.60;0.87;;;17.00;99.90;16.50;100902;;;;554721;254;24142;-80
2022/08/30 09:23:16;;;;;;;0.70;0.70;;;16.90;99.90;16.40;100891;;;;555569;254;23165;-80
2022/08/30 09:26:05;;;;;;;3.20;1.73;;;16.80;99.90;16.40;100898;;;;555047;254;24143;-79
2022/08/30 09:28:48;;;;;;;1.63;1.00;;;16.80;99.90;16.40;100895;;;;555539;254;24139;-79
2022/08/30 09:31:25;;;;;;;0.80;0.80;;;16.80;99.90;16.40;100901;;;;554595;254;24179;-79
2022/08/30 09:34:00;;;;;;;1.17;0.70;;;16.90;99.90;16.50;100905;;;;554968;254;24157;-80
2022/08/30 09:36:27;;;;;;;1.00;0.87;;;16.90;99.90;16.60;100904;;;;554430;254;24151;-80
2022/08/30 09:39:07;;;;;;;0.93;0.60;;;17.10;99.90;16.80;100899;;;;562861;251;24161;-80
2022/08/30 09:41:38;;;;;;;1.43;0.90;;;17.30;99.90;17.10;100902;;;;554646;254;24167;-79
2022/08/30 09:44:20;;;;;;;2.53;0.90;;;17.50;99.90;17.20;100898;;;;554781;254;24154;-78
2022/08/30 09:46:48;;;;;;;0.70;0.70;;;17.70;99.90;17.40;100902;;;;554590;254;24244;-81
2022/08/30 09:49:37;;;;;;;2.13;0.80;;;17.90;99.90;17.50;100898;;;;554441;254;24259;-81
2022/08/30 09:52:29;;;;;;;1.00;0.70;;;18.00;99.90;17.70;100902;;;;554187;254;24183;-80
2022/08/30 09:55:31;;;;;;;1.67;0.70;;;18.20;99.90;18.00;100889;;;;554720;250;24170;-82
2022/08/30 09:58:13;;;;;;;3.30;0.90;;;18.40;99.90;18.10;100902;;;;554709;254;24147;-83
2022/08/30 10:00:42;;;;;;;1.97;0.87;;;18.60;99.90;18.00;100893;;;;554809;254;24144;-81
2022/08/30 10:03:22;;;;;;;2.07;0.90;;;18.50;99.90;18.00;100899;;;;554366;254;24266;-78
2022/08/30 10:06:27;;;;;;;3.80;1.30;;;18.50;99.90;18.10;100904;;;;563546;251;24210;-81
2022/08/30 10:09:00;;;;;;;3.37;1.13;;;18.60;99.90;18.20;100910;;;;556179;254;24165;-84
2022/08/30 10:11:40;;;;;;;4.50;0.97;;;18.70;99.90;18.30;100914;;;;555052;254;24197;-78
2022/08/30 10:14:47;;;;;;;1.63;1.20;;;18.80;99.90;18.40;100909;;;;555473;254;24161;-81
2022/08/30 10:17:52;;;;;;;3.07;0.73;;;18.90;99.90;18.60;100906;;;;555271;254;24159;-81
2022/08/30 10:21:00;;;;;;;3.70;1.10;;;19.10;99.90;19.00;100904;;;;555273;254;24127;-79
2022/08/30 10:23:28;;;;;;;13.53;8.63;;;19.80;99.90;19.40;100913;;;;555097;254;24188;-80
2022/08/30 10:25:57;;;;;;;4.70;1.07;;;20.20;99.90;19.70;100921;;;;554736;254;24173;-79
2022/08/30 10:28:31;;;;;;;2.70;1.02;;;20.50;99.90;20.10;100918;;;;549320;254;35554;-79
2022/08/30 10:31:01;;;;;;;0.60;0.60;;;20.90;99.90;20.50;100916;;;;554755;254;23179;-78
2022/08/30 10:33:37;;;;;;;1.33;0.80;;;21.30;99.90;20.90;100910;;;;554415;254;23162;-78
2022/08/30 10:36:06;;;;;;;1.30;0.93;;;22.00;99.90;21.70;100925;;;;554818;254;24218;-78
2022/08/30 10:38:36;;;;;;;2.13;1.30;;;22.00;99.90;22.40;100921;;;;554722;254;24254;-78
2022/08/30 10:41:44;;;;;;;2.87;0.90;;;23.20;99.90;22.70;100919;;;;562813;254;24171;-79
2022/08/30 10:44:27;;;;;;;1.03;0.70;;;23.10;99.90;23.00;100922;;;;554549;254;24260;-81
2022/08/30 10:47:13;;;;;;;3.20;1.50;;;23.50;99.90;23.30;100931;;;;554420;254;24154;-80
2022/08/30 10:49:44;;;;;;;1.77;1.10;;;23.70;99.90;23.10;100928;;;;554191;254;24127;-81
2022/08/30 10:52:49;;;;;;;1.23;1.07;;;23.70;99.90;23.00;100923;;;;553464;254;24256;-78
2022/08/30 10:55:35;;;;;;;1.77;1.00;;;23.50;99.90;23.00;100931;;;;554722;254;24159;-78
2022/08/30 10:58:03;;;;;;;2.73;0.97;;;23.40;99.90;23.10;100926;;;;550655;254;24180;-78
2022/08/30 11:01:11;;;;;;;6.43;1.10;;;23.50;99.90;23.30;100924;;;;553514;254;24148;-80
2022/08/30 11:04:18;;;;;;;3.13;0.97;;;23.70;99.90;23.70;100928;;;;554253;254;24193;-79
2022/08/30 11:06:55;;;;;;;4.17;1.00;;;24.00;99.90;24.20;100928;;;;553772;254;24155;-80
2022/08/30 11:09:50;;;;;;;4.70;1.17;;;24.50;99.90;24.50;100934;;;;552963;254;23208;-79
2022/08/30 11:12:33;;;;;;;1.17;0.83;;;24.90;99.90;24.50;100916;;;;554783;254;24171;-77
2022/08/30 11:15:00;;;;;;;0.70;0.70;;;25.00;99.90;24.50;100920;;;;553115;254;24167;-78
2022/08/30 11:17:31;;;;;;;2.67;0.90;;;24.90;99.90;24.30;100918;;;;553136;254;24189;-79
2022/08/30 11:19:59;;;;;;;1.58;1.00;;;24.80;99.90;24.50;100927;;;;550512;254;35660;-78
2022/08/30 11:22:27;;;;;;;0.70;0.70;;;24.90;99.90;24.20;100927;;;;555439;254;23180;-80
2022/08/30 11:25:12;;;;;;;1.20;1.00;;;24.70;99.90;24.20;100921;;;;554539;254;24153;-80
2022/08/30 11:27:52;;;;;;;2.03;0.90;;;24.60;99.90;24.30;100933;;;;555445;254;24193;-80
2022/08/30 11:30:27;;;;;;;2.00;1.00;;;24.70;99.90;24.50;100935;;;;555061;254;23185;-78
2022/08/30 11:33:10;;;;;;;1.03;0.93;;;25.00;99.90;24.50;100932;;;;552509;254;23169;-78